createdAt,value
2019-04-27T00:02:22.127Z,12.01
2019-04-27T00:05:03.302Z,11.98
2019-04-27T00:08:00.942Z,11.99
2019-04-27T00:10:59.905Z,12.05
2019-04-27T00:13:30.481Z,12.06
2019-04-27T00:16:17.758Z,12.01
2019-04-27T00:19:07.004Z,12.02
2019-04-27T00:21:52.939Z,12.00
2019-04-27T00:24:23.556Z,11.96
2019-04-27T00:26:54.038Z,11.90
2019-04-27T00:29:25.919Z,11.80
2019-04-27T00:31:55.808Z,11.68
2019-04-27T00:34:25.758Z,11.64
2019-04-27T00:37:03.830Z,11.66
2019-04-27T00:39:48.312Z,11.77
2019-04-27T00:42:18.223Z,11.68
2019-04-27T00:44:48.186Z,11.65
2019-04-27T00:47:18.060Z,11.44
2019-04-27T00:49:48.072Z,11.57
2019-04-27T00:52:18.072Z,11.63
2019-04-27T00:54:47.939Z,11.49
2019-04-27T00:57:40.449Z,11.50
2019-04-27T01:00:28.116Z,11.60
2019-04-27T01:03:00.813Z,11.57
2019-04-27T01:05:30.859Z,11.63
2019-04-27T01:08:00.732Z,11.56
2019-04-27T01:10:30.590Z,11.57
2019-04-27T01:13:00.449Z,11.61
2019-04-27T01:15:30.360Z,11.63
2019-04-27T01:18:11.494Z,11.52
2019-04-27T01:20:31.850Z,11.57
2019-04-27T01:23:01.748Z,11.45
2019-04-27T01:26:02.809Z,11.55
2019-04-27T01:28:38.887Z,11.49
2019-04-27T01:31:11.144Z,11.54
2019-04-27T01:33:40.854Z,11.40
2019-04-27T01:36:10.870Z,11.56
2019-04-27T01:38:41.165Z,11.64
2019-04-27T01:41:11.066Z,11.55
2019-04-27T01:43:40.728Z,11.40
2019-04-27T01:46:10.654Z,11.41
2019-04-27T01:48:40.614Z,11.38
2019-04-27T01:51:10.371Z,11.31
2019-04-27T01:53:40.321Z,11.26
2019-04-27T01:56:10.371Z,11.15
2019-04-27T01:58:40.165Z,11.22
2019-04-27T02:01:30.005Z,11.34
2019-04-27T02:04:19.339Z,11.24
2019-04-27T02:06:51.516Z,11.20
2019-04-27T02:09:22.271Z,11.26
2019-04-27T02:11:52.333Z,11.27
2019-04-27T02:14:22.379Z,11.32
2019-04-27T02:16:52.144Z,11.33
2019-04-27T02:19:21.943Z,11.37
2019-04-27T02:21:51.832Z,11.32
2019-04-27T02:24:21.576Z,11.40
2019-04-27T02:26:51.411Z,11.31
2019-04-27T02:29:31.015Z,11.35
2019-04-27T02:32:20.386Z,11.25
2019-04-27T02:35:11.331Z,11.30
2019-04-27T02:37:41.339Z,11.29
2019-04-27T02:40:42.384Z,11.18
2019-04-27T02:43:11.179Z,11.25
2019-04-27T02:45:41.033Z,11.43
2019-04-27T02:48:10.828Z,11.55
2019-04-27T02:50:40.741Z,11.61
2019-04-27T02:53:11.296Z,11.67
2019-04-27T02:55:41.382Z,11.58
2019-04-27T02:58:13.064Z,11.65
2019-04-27T03:00:42.811Z,11.63
2019-04-27T03:03:14.714Z,11.62
2019-04-27T03:05:44.433Z,11.57
2019-04-27T03:08:14.264Z,11.63
2019-04-27T03:10:44.003Z,11.57
2019-04-27T03:13:35.605Z,11.60
2019-04-27T03:16:30.582Z,11.60
2019-04-27T03:19:21.645Z,11.51
2019-04-27T03:22:00.127Z,11.53
2019-04-27T03:24:49.794Z,11.64
2019-04-27T03:27:20.505Z,11.54
2019-04-27T03:29:50.334Z,11.66
2019-04-27T03:32:22.799Z,11.68
2019-04-27T03:34:52.797Z,11.83
2019-04-27T03:37:22.599Z,11.88
2019-04-27T03:39:52.484Z,11.68
2019-04-27T03:42:22.820Z,11.55
2019-04-27T03:44:52.704Z,11.63
2019-04-27T03:47:22.417Z,11.59
2019-04-27T03:49:52.399Z,11.82
2019-04-27T03:52:31.203Z,11.99
2019-04-27T03:55:14.465Z,12.09
2019-04-27T03:57:53.237Z,12.19
2019-04-27T04:00:26.328Z,11.94
2019-04-27T04:02:56.245Z,11.65
2019-04-27T04:05:26.368Z,11.62
2019-04-27T04:07:57.607Z,11.42
2019-04-27T04:10:29.312Z,11.60
2019-04-27T04:13:01.885Z,11.72
2019-04-27T04:15:52.713Z,11.73
2019-04-27T04:18:23.228Z,11.86
2019-04-27T04:20:52.979Z,11.83
2019-04-27T04:23:24.166Z,11.73
2019-04-27T04:25:53.867Z,11.88
2019-04-27T04:28:23.781Z,11.94
2019-04-27T04:30:54.831Z,12.04
2019-04-27T04:33:24.715Z,12.09
2019-04-27T04:35:55.762Z,12.27
2019-04-27T04:38:25.589Z,12.36
2019-04-27T04:41:01.380Z,12.59
2019-04-27T04:43:54.401Z,12.72
2019-04-27T04:46:41.640Z,12.63
2019-04-27T04:49:12.798Z,12.60
2019-04-27T04:51:42.596Z,12.80
2019-04-27T04:54:12.300Z,12.65
2019-04-27T04:56:43.398Z,12.83
2019-04-27T04:59:13.247Z,13.03
2019-04-27T05:01:43.512Z,13.21
2019-04-27T05:04:13.457Z,13.30
2019-04-27T05:06:43.322Z,13.35
2019-04-27T05:09:13.142Z,13.20
2019-04-27T05:11:42.981Z,13.22
2019-04-27T05:14:12.651Z,13.38
2019-04-27T05:16:42.403Z,13.29
2019-04-27T05:19:13.299Z,13.50
2019-04-27T05:21:43.110Z,13.36
2019-04-27T05:24:12.865Z,13.28
2019-04-27T05:26:42.647Z,13.21
2019-04-27T05:29:12.515Z,13.45
2019-04-27T05:31:42.402Z,13.69
2019-04-27T05:34:12.302Z,13.76
2019-04-27T05:36:48.766Z,13.83
2019-04-27T05:39:18.165Z,14.01
2019-04-27T05:41:45.335Z,13.96
2019-04-27T05:44:39.657Z,14.06
2019-04-27T05:47:14.922Z,14.23
2019-04-27T05:49:51.710Z,14.05
2019-04-27T05:52:33.436Z,14.22
2019-04-27T05:55:03.270Z,14.32
2019-04-27T05:57:33.054Z,14.16
2019-04-27T06:00:03.186Z,14.17
2019-04-27T06:02:32.998Z,14.08
2019-04-27T06:05:02.797Z,14.00
2019-04-27T06:07:32.680Z,13.42
2019-04-27T06:10:02.648Z,13.77
2019-04-27T06:12:32.480Z,13.68
2019-04-27T06:15:02.498Z,13.71
2019-04-27T06:17:32.296Z,13.87
2019-04-27T06:20:02.042Z,13.99
2019-04-27T06:22:31.917Z,14.09
2019-04-27T06:25:01.731Z,14.17
2019-04-27T06:27:31.579Z,14.22
2019-04-27T06:30:01.249Z,14.37
2019-04-27T06:32:31.176Z,14.08
2019-04-27T06:35:01.243Z,14.05
2019-04-27T06:37:31.003Z,14.29
2019-04-27T06:40:01.229Z,14.36
2019-04-27T06:42:32.270Z,14.62
2019-04-27T06:45:02.077Z,14.76
2019-04-27T06:47:31.799Z,14.45
2019-04-27T06:50:02.880Z,14.39
2019-04-27T06:52:32.750Z,14.29
2019-04-27T06:55:02.666Z,14.17
2019-04-27T06:57:32.424Z,13.88
2019-04-27T07:00:02.191Z,13.96
2019-04-27T07:02:31.902Z,13.99
2019-04-27T07:05:01.658Z,13.92
2019-04-27T07:07:31.380Z,13.88
2019-04-27T07:10:01.262Z,13.71
2019-04-27T07:12:31.013Z,13.52
2019-04-27T07:15:00.887Z,13.81
2019-04-27T07:17:30.806Z,13.66
2019-04-27T07:20:00.676Z,14.14
2019-04-27T07:22:30.530Z,13.97
2019-04-27T07:25:00.499Z,14.09
2019-04-27T07:27:30.352Z,14.05
2019-04-27T07:30:01.745Z,14.01
2019-04-27T07:32:32.865Z,13.92
2019-04-27T07:35:02.665Z,13.89
2019-04-27T07:37:32.595Z,13.83
2019-04-27T07:40:03.678Z,13.81
2019-04-27T07:42:34.152Z,14.19
2019-04-27T07:45:32.149Z,14.03
2019-04-27T07:48:02.051Z,13.94
2019-04-27T07:50:31.671Z,14.10
2019-04-27T07:53:02.739Z,14.01
2019-04-27T07:55:32.525Z,14.04
2019-04-27T07:58:04.938Z,14.10
2019-04-27T08:00:33.746Z,14.23
2019-04-27T08:03:03.727Z,14.43
2019-04-27T08:05:33.649Z,14.11
2019-04-27T08:08:03.429Z,14.27
2019-04-27T08:10:34.596Z,14.21
2019-04-27T08:13:04.412Z,14.48
2019-04-27T08:15:34.104Z,14.47
2019-04-27T08:18:04.117Z,14.40
2019-04-27T08:20:33.952Z,14.42
2019-04-27T08:23:03.757Z,14.39
2019-04-27T08:25:33.709Z,14.23
2019-04-27T08:28:10.429Z,14.09
2019-04-27T08:31:00.408Z,14.26
2019-04-27T08:33:30.235Z,14.19
2019-04-27T08:36:00.071Z,14.22
2019-04-27T08:38:31.134Z,13.97
2019-04-27T08:41:01.016Z,14.15
2019-04-27T08:43:31.858Z,14.44
2019-04-27T08:46:01.626Z,14.53
2019-04-27T08:48:36.852Z,14.42
2019-04-27T08:51:03.109Z,14.60
2019-04-27T08:53:32.877Z,14.52
2019-04-27T08:56:04.032Z,14.20
2019-04-27T08:58:33.820Z,13.96
2019-04-27T09:01:03.756Z,14.19
2019-04-27T09:03:33.503Z,14.17
2019-04-27T09:06:06.820Z,14.23
2019-04-27T09:08:51.189Z,14.07
2019-04-27T09:11:40.516Z,14.28
2019-04-27T09:14:32.214Z,13.98
2019-04-27T09:17:09.781Z,14.18
2019-04-27T09:20:09.459Z,14.36
2019-04-27T09:22:39.311Z,14.51
2019-04-27T09:25:09.403Z,14.47
2019-04-27T09:27:39.381Z,14.41
2019-04-27T09:30:10.337Z,14.27
2019-04-27T09:32:40.831Z,14.24
2019-04-27T09:35:10.654Z,14.15
2019-04-27T09:37:40.635Z,13.97
2019-04-27T09:40:10.913Z,14.10
2019-04-27T09:42:40.748Z,14.19
2019-04-27T09:45:11.116Z,14.44
2019-04-27T09:47:40.760Z,14.22
2019-04-27T09:50:11.018Z,14.17
2019-04-27T09:52:40.887Z,14.33
2019-04-27T09:55:10.913Z,14.64
2019-04-27T09:57:40.786Z,14.32
2019-04-27T10:00:11.853Z,14.26
2019-04-27T10:02:41.909Z,14.57
2019-04-27T10:05:12.463Z,14.55
2019-04-27T10:07:42.128Z,14.65
2019-04-27T10:10:12.576Z,14.75
2019-04-27T10:12:43.904Z,14.90
2019-04-27T10:15:13.742Z,15.13
2019-04-27T10:17:43.655Z,15.17
2019-04-27T10:20:13.625Z,15.13
2019-04-27T10:22:43.888Z,15.19
2019-04-27T10:25:27.841Z,15.19
2019-04-27T10:28:00.733Z,14.66
2019-04-27T10:30:31.600Z,14.84
2019-04-27T10:33:01.476Z,14.78
2019-04-27T10:35:31.511Z,14.83
2019-04-27T10:38:01.366Z,15.02
2019-04-27T10:40:31.242Z,14.89
2019-04-27T10:43:01.163Z,14.92
2019-04-27T10:45:30.917Z,15.02
2019-04-27T10:48:00.761Z,14.98
2019-04-27T10:50:30.802Z,14.90
2019-04-27T10:53:00.742Z,14.82
2019-04-27T10:55:30.645Z,14.65
2019-04-27T10:58:00.385Z,14.44
2019-04-27T11:00:36.824Z,14.81
2019-04-27T11:03:07.186Z,14.79
2019-04-27T11:05:52.762Z,14.79
2019-04-27T11:08:22.583Z,14.79
2019-04-27T11:10:52.344Z,14.86
2019-04-27T11:13:22.274Z,15.10
2019-04-27T11:15:52.238Z,15.44
2019-04-27T11:18:22.099Z,15.39
2019-04-27T11:20:52.013Z,15.35
2019-04-27T11:23:21.983Z,15.26
2019-04-27T11:25:52.967Z,15.38
2019-04-27T11:28:22.679Z,15.45
2019-04-27T11:30:53.775Z,15.65
2019-04-27T11:33:23.634Z,15.46
2019-04-27T11:36:16.986Z,15.59
2019-04-27T11:38:48.308Z,15.51
2019-04-27T11:41:19.426Z,15.28
2019-04-27T11:43:49.218Z,15.65
2019-04-27T11:46:18.943Z,15.97
2019-04-27T11:48:50.174Z,16.17
2019-04-27T11:51:20.038Z,16.52
2019-04-27T11:53:51.188Z,16.10
2019-04-27T11:56:20.955Z,15.79
2019-04-27T11:58:50.770Z,15.52
2019-04-27T12:01:20.749Z,15.61
2019-04-27T12:03:50.618Z,15.39
2019-04-27T12:06:20.463Z,15.43
2019-04-27T12:08:50.120Z,15.49
2019-04-27T12:11:19.959Z,15.36
2019-04-27T12:13:50.917Z,15.50
2019-04-27T12:16:20.702Z,15.49
2019-04-27T12:18:50.616Z,15.74
2019-04-27T12:21:20.587Z,14.91
2019-04-27T12:23:50.455Z,14.92
2019-04-27T12:26:36.259Z,14.75
2019-04-27T12:29:07.448Z,15.08
2019-04-27T12:31:39.616Z,15.02
2019-04-27T12:34:09.486Z,15.55
2019-04-27T12:36:39.401Z,16.18
2019-04-27T12:39:13.373Z,16.59
2019-04-27T12:41:43.514Z,16.55
2019-04-27T12:44:13.498Z,16.13
2019-04-27T12:46:43.269Z,16.92
2019-04-27T12:49:13.298Z,17.40
2019-04-27T12:51:43.538Z,17.31
2019-04-27T12:54:36.242Z,17.82
2019-04-27T12:57:26.378Z,17.43
2019-04-27T13:00:16.544Z,17.86
2019-04-27T13:02:46.731Z,17.49
2019-04-27T13:05:16.670Z,17.03
2019-04-27T13:07:46.473Z,16.88
2019-04-27T13:10:16.633Z,17.26
2019-04-27T13:12:46.545Z,17.76
2019-04-27T13:15:17.168Z,17.70
2019-04-27T13:17:46.915Z,17.08
2019-04-27T13:20:16.804Z,17.00
2019-04-27T13:22:46.917Z,17.38
2019-04-27T13:25:16.838Z,17.69
2019-04-27T13:27:48.124Z,17.76
2019-04-27T13:30:19.843Z,18.33
2019-04-27T13:32:49.666Z,18.11
2019-04-27T13:35:19.378Z,18.31
2019-04-27T13:37:49.305Z,17.56
2019-04-27T13:40:19.737Z,17.13
2019-04-27T13:43:16.641Z,16.90
2019-04-27T13:45:53.929Z,16.34
2019-04-27T13:48:41.382Z,16.28
2019-04-27T13:51:14.262Z,15.93
2019-04-27T13:53:45.614Z,15.63
2019-04-27T13:56:17.140Z,15.97
2019-04-27T13:58:46.849Z,15.74
2019-04-27T14:01:16.718Z,15.99
2019-04-27T14:03:46.767Z,15.98
2019-04-27T14:06:16.665Z,16.17
2019-04-27T14:08:46.542Z,16.68
2019-04-27T14:11:18.108Z,17.39
2019-04-27T14:13:48.494Z,16.71
2019-04-27T14:16:18.955Z,16.93
2019-04-27T14:18:48.772Z,17.06
2019-04-27T14:21:18.731Z,17.26
2019-04-27T14:23:48.554Z,16.72
2019-04-27T14:26:18.594Z,16.98
2019-04-27T14:28:49.882Z,16.45
2019-04-27T14:31:20.985Z,15.94
2019-04-27T14:33:52.822Z,15.69
2019-04-27T14:36:22.586Z,15.30
2019-04-27T14:38:52.583Z,14.94
2019-04-27T14:41:22.622Z,14.71
2019-04-27T14:44:05.425Z,14.50
2019-04-27T14:46:24.083Z,14.52
2019-04-27T14:48:53.913Z,14.58
2019-04-27T14:51:23.859Z,14.39
2019-04-27T14:53:53.587Z,14.15
2019-04-27T14:56:24.868Z,14.03
2019-04-27T14:58:55.137Z,14.23
2019-04-27T15:01:25.093Z,13.95
2019-04-27T15:03:54.845Z,13.87
2019-04-27T15:06:25.821Z,13.86
2019-04-27T15:08:55.891Z,13.91
2019-04-27T15:11:25.857Z,13.99
2019-04-27T15:13:59.294Z,13.89
2019-04-27T15:16:28.442Z,13.98
2019-04-27T15:19:02.434Z,13.85
2019-04-27T15:21:38.371Z,13.63
2019-04-27T15:24:10.259Z,13.64
2019-04-27T15:26:36.353Z,13.81
2019-04-27T15:29:07.386Z,13.59
2019-04-27T15:31:41.337Z,13.47
2019-04-27T15:34:29.977Z,13.56
2019-04-27T15:37:35.281Z,13.50
2019-04-27T15:40:35.492Z,13.41
2019-04-27T15:43:30.408Z,13.34
2019-04-27T15:45:58.723Z,13.28
2019-04-27T15:48:30.688Z,13.44
2019-04-27T15:51:03.239Z,13.47
2019-04-27T15:53:31.747Z,13.51
2019-04-27T15:56:02.026Z,13.46
2019-04-27T15:58:32.024Z,13.35
2019-04-27T16:01:06.684Z,13.34
2019-04-27T16:03:34.751Z,13.36
2019-04-27T16:06:08.114Z,13.27
2019-04-27T16:08:38.261Z,13.11
2019-04-27T16:11:09.911Z,13.16
2019-04-27T16:13:40.195Z,13.17
2019-04-27T16:16:10.177Z,13.12
2019-04-27T16:18:41.315Z,12.98
2019-04-27T16:21:12.375Z,12.97
2019-04-27T16:23:43.129Z,13.10
2019-04-27T16:26:14.869Z,13.10
2019-04-27T16:28:49.681Z,13.10
2019-04-27T16:31:18.667Z,13.14
2019-04-27T16:33:49.603Z,13.09
2019-04-27T16:36:20.991Z,12.99
2019-04-27T16:39:03.794Z,12.95
2019-04-27T16:41:37.316Z,12.93
2019-04-27T16:44:08.806Z,12.85
2019-04-27T16:46:39.387Z,12.81
2019-04-27T16:49:13.789Z,12.85
2019-04-27T16:51:42.496Z,12.80
2019-04-27T16:54:17.524Z,12.79
2019-04-27T16:56:45.548Z,12.72
2019-04-27T16:59:36.434Z,12.74
2019-04-27T17:01:50.143Z,12.62
2019-04-27T17:04:19.750Z,12.65
2019-04-27T17:06:49.665Z,12.68
2019-04-27T17:09:19.411Z,12.61
2019-04-27T17:11:51.736Z,12.65
2019-04-27T17:14:34.813Z,12.68
2019-04-27T17:17:29.576Z,12.66
2019-04-27T17:20:03.177Z,12.62
2019-04-27T17:22:32.884Z,12.58
2019-04-27T17:25:02.824Z,12.58
2019-04-27T17:27:41.263Z,12.55
2019-04-27T17:30:11.339Z,12.55
2019-04-27T17:33:01.496Z,12.59
2019-04-27T17:35:34.787Z,12.49
2019-04-27T17:38:03.747Z,12.56
2019-04-27T17:40:36.026Z,12.59
2019-04-27T17:43:07.995Z,12.59
2019-04-27T17:45:39.254Z,12.54
2019-04-27T17:48:10.844Z,12.53
2019-04-27T17:50:40.676Z,12.59
2019-04-27T17:53:10.610Z,12.52
2019-04-27T17:55:41.782Z,12.52
2019-04-27T17:58:11.567Z,12.46
2019-04-27T18:00:44.581Z,12.44
2019-04-27T18:03:17.559Z,12.47
2019-04-27T18:05:50.570Z,12.46
2019-04-27T18:08:20.310Z,12.40
2019-04-27T18:10:47.743Z,12.45
2019-04-27T18:13:20.728Z,12.50
2019-04-27T18:15:50.617Z,12.49
2019-04-27T18:18:38.004Z,12.50
2019-04-27T18:21:08.470Z,12.52
2019-04-27T18:23:40.166Z,12.49
2019-04-27T18:26:19.320Z,12.50
2019-04-27T18:28:53.760Z,12.50
2019-04-27T18:31:21.651Z,12.49
2019-04-27T18:33:51.524Z,12.49
2019-04-27T18:36:21.547Z,12.49
2019-04-27T18:38:51.456Z,12.50
2019-04-27T18:41:21.220Z,12.58
2019-04-27T18:43:54.707Z,12.61
2019-04-27T18:46:24.820Z,12.60
2019-04-27T18:49:13.156Z,12.57
2019-04-27T18:51:58.172Z,12.64
2019-04-27T18:54:26.202Z,12.65
2019-04-27T18:57:02.882Z,12.58
2019-04-27T18:59:28.827Z,12.63
2019-04-27T19:01:58.697Z,12.58
2019-04-27T19:04:28.678Z,12.62
2019-04-27T19:07:00.122Z,12.64
2019-04-27T19:09:31.171Z,12.59
2019-04-27T19:12:00.971Z,12.58
2019-04-27T19:14:30.680Z,12.63
2019-04-27T19:17:00.526Z,12.65
2019-04-27T19:19:30.210Z,12.66
2019-04-27T19:22:00.136Z,12.68
2019-04-27T19:24:29.975Z,12.70
2019-04-27T19:27:21.085Z,12.73
2019-04-27T19:29:53.777Z,12.70
2019-04-27T19:32:23.813Z,12.68
2019-04-27T19:34:54.900Z,12.76
2019-04-27T19:37:24.705Z,12.68
2019-04-27T19:39:55.882Z,12.72
2019-04-27T19:42:25.662Z,12.76
2019-04-27T19:44:55.378Z,12.75
2019-04-27T19:47:25.254Z,12.70
2019-04-27T19:49:55.116Z,12.68
2019-04-27T19:52:27.775Z,12.70
2019-04-27T19:54:58.545Z,12.81
2019-04-27T19:57:36.391Z,12.79
2019-04-27T20:00:02.568Z,12.80
2019-04-27T20:02:32.445Z,12.75
2019-04-27T20:05:08.463Z,12.70
2019-04-27T20:07:38.263Z,12.75
2019-04-27T20:10:09.212Z,12.84
2019-04-27T20:12:40.948Z,12.89
2019-04-27T20:15:11.112Z,12.90
2019-04-27T20:17:41.147Z,12.88
2019-04-27T20:20:12.820Z,12.86
2019-04-27T20:22:43.613Z,12.87
2019-04-27T20:25:14.771Z,12.85
2019-04-27T20:27:49.146Z,12.90
2019-04-27T20:30:16.812Z,12.92
2019-04-27T20:32:48.016Z,12.91
2019-04-27T20:35:17.687Z,12.86
2019-04-27T20:37:47.397Z,12.92
2019-04-27T20:40:18.555Z,12.88
2019-04-27T20:42:48.357Z,12.68
2019-04-27T20:45:18.267Z,12.77
2019-04-27T20:47:48.146Z,12.85
2019-04-27T20:50:17.803Z,12.76
2019-04-27T20:52:56.647Z,12.71
2019-04-27T20:55:26.552Z,12.62
2019-04-27T20:58:01.709Z,12.60
2019-04-27T21:00:28.158Z,12.76
2019-04-27T21:03:08.717Z,12.68
2019-04-27T21:05:55.090Z,12.63
2019-04-27T21:08:25.153Z,12.66
2019-04-27T21:10:54.907Z,12.70
2019-04-27T21:13:24.839Z,12.68
2019-04-27T21:15:54.743Z,12.54
2019-04-27T21:18:24.561Z,12.68
2019-04-27T21:20:54.325Z,12.64
2019-04-27T21:23:24.106Z,12.78
2019-04-27T21:25:54.026Z,12.62
2019-04-27T21:28:23.998Z,12.71
2019-04-27T21:30:53.908Z,12.73
2019-04-27T21:33:23.755Z,12.62
2019-04-27T21:35:53.667Z,12.54
2019-04-27T21:38:23.632Z,12.34
2019-04-27T21:40:53.498Z,12.40
2019-04-27T21:43:23.786Z,12.26
2019-04-27T21:45:53.539Z,12.33
2019-04-27T21:48:23.467Z,12.31
2019-04-27T21:50:53.426Z,12.50
2019-04-27T21:53:41.195Z,12.27
2019-04-27T21:56:12.038Z,12.19
2019-04-27T21:58:42.124Z,12.23
2019-04-27T22:01:43.503Z,12.20
2019-04-27T22:04:13.519Z,12.19
2019-04-27T22:06:43.392Z,12.20
2019-04-27T22:09:14.445Z,12.27
2019-04-27T22:11:44.465Z,12.17
2019-04-27T22:14:14.231Z,12.27
2019-04-27T22:16:44.263Z,12.28
2019-04-27T22:19:14.221Z,12.20
2019-04-27T22:21:44.211Z,12.25
2019-04-27T22:24:33.284Z,12.16
2019-04-27T22:27:03.106Z,12.12
2019-04-27T22:29:32.900Z,12.05
2019-04-27T22:32:02.885Z,12.07
2019-04-27T22:34:32.731Z,12.01
2019-04-27T22:37:02.798Z,12.00
2019-04-27T22:39:42.482Z,12.08
2019-04-27T22:42:31.397Z,12.05
2019-04-27T22:45:08.280Z,12.06
2019-04-27T22:47:38.048Z,12.04
2019-04-27T22:50:08.506Z,12.06
2019-04-27T22:52:38.307Z,12.00
2019-04-27T22:55:08.100Z,11.94
2019-04-27T22:57:45.859Z,12.00
2019-04-27T23:00:31.149Z,11.99
2019-04-27T23:03:02.766Z,12.00
2019-04-27T23:05:32.776Z,12.06
2019-04-27T23:08:02.563Z,12.15
2019-04-27T23:10:32.787Z,12.18
2019-04-27T23:13:02.672Z,12.18
2019-04-27T23:15:38.707Z,12.16
2019-04-27T23:18:08.625Z,12.11
2019-04-27T23:20:38.523Z,12.10
2019-04-27T23:23:08.423Z,12.15
2019-04-27T23:25:38.451Z,12.15
2019-04-27T23:28:08.378Z,12.11
2019-04-27T23:30:55.843Z,12.10
2019-04-27T23:33:25.593Z,12.11
2019-04-27T23:35:55.343Z,12.00
2019-04-27T23:38:25.144Z,11.94
2019-04-27T23:40:55.051Z,11.89
2019-04-27T23:43:25.009Z,11.91
2019-04-27T23:45:55.651Z,11.93
2019-04-27T23:48:25.304Z,11.95
2019-04-27T23:51:00.117Z,11.95
2019-04-27T23:53:31.872Z,11.86
2019-04-27T23:56:01.611Z,11.93
2019-04-27T23:58:31.495Z,12.05
